createdAt,value
2023-05-14T00:02:26.770Z,93.67
2023-05-14T00:04:57.193Z,93.72
2023-05-14T00:07:30.998Z,94.39
2023-05-14T00:10:01.944Z,94.60
2023-05-14T00:12:34.973Z,94.89
2023-05-14T00:15:05.842Z,95.37
2023-05-14T00:17:36.304Z,95.58
2023-05-14T00:20:07.863Z,95.80
2023-05-14T00:22:39.508Z,95.71
2023-05-14T00:25:11.674Z,95.34
2023-05-14T00:27:44.616Z,95.21
2023-05-14T00:30:15.749Z,95.15
2023-05-14T00:32:46.115Z,95.56
2023-05-14T00:35:16.513Z,96.29
2023-05-14T00:37:46.925Z,96.18
2023-05-14T00:40:17.393Z,96.24
2023-05-14T00:42:51.280Z,95.65
2023-05-14T00:45:21.821Z,95.54
2023-05-14T00:47:52.715Z,95.42
2023-05-14T00:50:24.510Z,95.07
2023-05-14T00:52:55.419Z,94.90
2023-05-14T00:55:26.185Z,94.83
2023-05-14T00:58:02.185Z,95.26
2023-05-14T01:00:32.897Z,95.24
2023-05-14T01:03:03.852Z,95.07
2023-05-14T01:05:59.159Z,95.10
2023-05-14T01:08:39.640Z,95.15
2023-05-14T01:11:15.775Z,94.89
2023-05-14T01:14:00.319Z,94.79
2023-05-14T01:16:32.459Z,95.12
2023-05-14T01:19:05.106Z,94.99
2023-05-14T01:21:46.438Z,95.31
2023-05-14T01:24:17.020Z,95.43
2023-05-14T01:26:47.633Z,95.73
2023-05-14T01:29:26.496Z,95.61
2023-05-14T01:32:00.781Z,95.83
2023-05-14T01:34:33.545Z,95.71
2023-05-14T01:37:08.285Z,95.87
2023-05-14T01:39:40.854Z,96.21
2023-05-14T01:42:12.363Z,96.02
2023-05-14T01:44:42.916Z,96.15
2023-05-14T01:47:13.404Z,96.30
2023-05-14T01:49:43.778Z,96.57
2023-05-14T01:52:16.752Z,96.71
2023-05-14T01:54:47.055Z,97.07
2023-05-14T01:57:17.632Z,97.23
2023-05-14T01:59:48.213Z,97.45
2023-05-14T02:02:18.582Z,97.52
2023-05-14T02:04:49.281Z,97.64
2023-05-14T02:07:22.324Z,97.56
2023-05-14T02:09:52.762Z,97.58
2023-05-14T02:12:23.713Z,97.69
2023-05-14T02:14:54.323Z,97.66
2023-05-14T02:17:25.095Z,97.80
2023-05-14T02:19:56.017Z,97.88
2023-05-14T02:22:29.141Z,97.90
2023-05-14T02:24:59.606Z,98.23
2023-05-14T02:27:30.088Z,98.19
2023-05-14T02:30:01.034Z,98.62
2023-05-14T02:32:31.651Z,98.47
2023-05-14T02:35:02.508Z,98.66
2023-05-14T02:37:35.559Z,98.77
2023-05-14T02:40:06.117Z,98.62
2023-05-14T02:42:37.518Z,98.84
2023-05-14T02:45:09.830Z,98.68
2023-05-14T02:47:40.177Z,98.89
2023-05-14T02:50:12.104Z,99.03
2023-05-14T02:52:45.067Z,98.89
2023-05-14T02:55:15.916Z,98.86
2023-05-14T02:57:46.892Z,98.26
2023-05-14T03:00:18.208Z,98.15
2023-05-14T03:02:49.531Z,97.70
2023-05-14T03:05:20.666Z,97.74
2023-05-14T03:07:54.181Z,97.57
2023-05-14T03:10:24.814Z,97.94
2023-05-14T03:12:55.780Z,98.17
2023-05-14T03:15:26.333Z,98.42
2023-05-14T03:17:56.930Z,98.74
2023-05-14T03:20:28.146Z,98.61
2023-05-14T03:23:01.194Z,98.48
2023-05-14T03:25:31.558Z,98.39
2023-05-14T03:28:02.051Z,98.20
2023-05-14T03:30:32.604Z,98.11
2023-05-14T03:33:03.346Z,98.47
2023-05-14T03:35:33.812Z,98.33
2023-05-14T03:38:06.766Z,98.20
2023-05-14T03:40:38.450Z,98.37
2023-05-14T03:43:08.944Z,98.35
2023-05-14T03:45:40.292Z,98.43
2023-05-14T03:48:10.982Z,98.46
2023-05-14T03:50:42.125Z,98.42
2023-05-14T03:53:15.217Z,98.51
2023-05-14T03:55:45.555Z,98.30
2023-05-14T03:58:17.590Z,98.16
2023-05-14T04:00:48.058Z,98.04
2023-05-14T04:03:18.585Z,97.76
2023-05-14T04:05:49.221Z,97.61
2023-05-14T04:08:22.139Z,97.41
2023-05-14T04:10:53.710Z,97.74
2023-05-14T04:13:26.564Z,97.85
2023-05-14T04:15:57.913Z,98.11
2023-05-14T04:18:28.833Z,98.24
2023-05-14T04:20:59.439Z,98.01
2023-05-14T04:23:32.620Z,97.88
2023-05-14T04:26:03.759Z,97.52
2023-05-14T04:28:34.176Z,97.09
2023-05-14T04:31:04.626Z,97.00
2023-05-14T04:33:35.178Z,97.05
2023-05-14T04:36:05.847Z,97.23
2023-05-14T04:38:38.822Z,97.30
2023-05-14T04:41:09.320Z,97.21
2023-05-14T04:43:39.596Z,96.80
2023-05-14T04:46:09.996Z,97.22
2023-05-14T04:48:40.454Z,97.28
2023-05-14T04:51:11.092Z,97.44
2023-05-14T04:53:44.165Z,97.02
2023-05-14T04:56:14.660Z,96.50
2023-05-14T04:58:45.029Z,96.10
2023-05-14T05:01:15.519Z,96.07
2023-05-14T05:03:46.005Z,95.81
2023-05-14T05:06:16.458Z,96.16
2023-05-14T05:08:49.660Z,96.89
2023-05-14T05:11:19.985Z,97.27
2023-05-14T05:13:50.521Z,96.70
2023-05-14T05:16:20.930Z,96.37
2023-05-14T05:18:51.606Z,96.46
2023-05-14T05:21:21.929Z,96.41
2023-05-14T05:23:55.044Z,96.50
2023-05-14T05:26:26.896Z,96.84
2023-05-14T05:28:57.301Z,96.69
2023-05-14T05:31:27.678Z,96.63
2023-05-14T05:33:58.063Z,96.59
2023-05-14T05:36:28.887Z,96.78
2023-05-14T05:39:02.439Z,95.42
2023-05-14T05:41:32.939Z,94.78
2023-05-14T05:44:03.323Z,94.71
2023-05-14T05:46:33.748Z,94.86
2023-05-14T05:49:04.281Z,95.05
2023-05-14T05:51:34.649Z,94.97
2023-05-14T05:54:07.754Z,95.21
2023-05-14T05:56:38.275Z,95.68
2023-05-14T05:59:08.874Z,95.83
2023-05-14T06:01:40.876Z,96.12
2023-05-14T06:04:11.253Z,95.52
2023-05-14T06:06:41.635Z,95.23
2023-05-14T06:09:14.625Z,95.62
2023-05-14T06:11:45.181Z,95.92
2023-05-14T06:14:15.781Z,95.62
2023-05-14T06:16:46.684Z,95.95
2023-05-14T06:19:17.254Z,95.89
2023-05-14T06:21:48.166Z,95.78
2023-05-14T06:24:21.494Z,95.38
2023-05-14T06:26:52.184Z,94.77
2023-05-14T06:29:22.653Z,94.21
2023-05-14T06:31:53.033Z,93.83
2023-05-14T06:34:23.460Z,93.64
2023-05-14T06:36:53.806Z,93.89
2023-05-14T06:39:26.868Z,94.56
2023-05-14T06:41:57.243Z,94.68
2023-05-14T06:44:27.623Z,94.64
2023-05-14T06:46:58.156Z,94.61
2023-05-14T06:49:28.532Z,93.24
2023-05-14T06:51:58.887Z,93.13
2023-05-14T06:54:32.069Z,92.10
2023-05-14T06:57:02.400Z,91.60
2023-05-14T06:59:33.456Z,91.59
2023-05-14T07:02:04.208Z,91.65
2023-05-14T07:04:34.795Z,92.37
2023-05-14T07:07:05.869Z,92.91
2023-05-14T07:09:38.935Z,93.43
2023-05-14T07:12:11.324Z,92.66
2023-05-14T07:14:41.716Z,92.49
2023-05-14T07:17:12.183Z,93.06
2023-05-14T07:19:42.664Z,93.23
2023-05-14T07:22:13.300Z,93.71
2023-05-14T07:24:46.310Z,93.13
2023-05-14T07:27:17.140Z,92.07
2023-05-14T07:29:47.794Z,91.32
2023-05-14T07:32:18.073Z,91.85
2023-05-14T07:34:48.974Z,92.77
2023-05-14T07:37:19.673Z,91.93
2023-05-14T07:39:53.229Z,92.00
2023-05-14T07:42:35.028Z,91.72
2023-05-14T07:45:07.468Z,92.18
2023-05-14T07:47:38.110Z,91.98
2023-05-14T07:50:10.917Z,90.49
2023-05-14T07:52:41.397Z,87.74
2023-05-14T07:55:15.720Z,85.20
2023-05-14T07:57:46.302Z,85.65
2023-05-14T08:00:18.238Z,86.31
2023-05-14T08:02:49.303Z,86.73
2023-05-14T08:05:20.650Z,87.14
2023-05-14T08:07:51.273Z,84.11
2023-05-14T08:10:24.593Z,84.06
2023-05-14T08:12:55.448Z,82.59
2023-05-14T08:15:27.936Z,83.94
2023-05-14T08:18:03.428Z,85.33
2023-05-14T08:20:34.184Z,83.88
2023-05-14T08:23:04.826Z,82.75
2023-05-14T08:25:38.000Z,83.60
2023-05-14T08:28:08.634Z,84.42
2023-05-14T08:30:39.048Z,84.42
2023-05-14T08:33:09.699Z,85.43
2023-05-14T08:35:40.084Z,86.48
2023-05-14T08:38:10.775Z,84.79
2023-05-14T08:40:44.448Z,84.27
2023-05-14T08:43:17.402Z,82.70
2023-05-14T08:45:48.407Z,82.17
2023-05-14T08:48:20.515Z,83.57
2023-05-14T08:50:51.132Z,81.82
2023-05-14T08:53:21.597Z,82.33
2023-05-14T08:55:54.894Z,82.19
2023-05-14T08:58:25.942Z,81.04
2023-05-14T09:00:57.640Z,81.87
2023-05-14T09:03:28.246Z,81.50
2023-05-14T09:06:00.297Z,82.57
2023-05-14T09:08:30.866Z,82.65
2023-05-14T09:11:03.809Z,82.20
2023-05-14T09:13:34.236Z,80.74
2023-05-14T09:16:05.783Z,79.13
2023-05-14T09:18:38.800Z,79.44
2023-05-14T09:21:11.349Z,78.65
2023-05-14T09:23:46.104Z,78.31
2023-05-14T09:26:20.042Z,78.27
2023-05-14T09:28:50.615Z,77.35
2023-05-14T09:31:21.004Z,78.60
2023-05-14T09:33:54.136Z,78.19
2023-05-14T09:36:25.213Z,78.30
2023-05-14T09:38:55.616Z,78.57
2023-05-14T09:41:28.861Z,77.49
2023-05-14T09:43:59.253Z,77.39
2023-05-14T09:46:31.582Z,75.33
2023-05-14T09:49:02.022Z,74.51
2023-05-14T09:51:34.451Z,75.01
2023-05-14T09:54:07.197Z,76.30
2023-05-14T09:56:40.922Z,75.34
2023-05-14T09:59:11.389Z,74.47
2023-05-14T10:01:42.283Z,75.36
2023-05-14T10:04:14.270Z,74.27
2023-05-14T10:06:49.939Z,74.82
2023-05-14T10:09:23.377Z,74.33
2023-05-14T10:12:01.766Z,72.17
2023-05-14T10:14:41.225Z,74.32
2023-05-14T10:17:18.586Z,73.34
2023-05-14T10:19:56.093Z,73.71
2023-05-14T10:22:30.841Z,73.65
2023-05-14T10:25:01.044Z,73.53
2023-05-14T10:27:34.413Z,72.87
2023-05-14T10:30:14.657Z,73.01
2023-05-14T10:32:45.148Z,72.81
2023-05-14T10:35:25.609Z,73.13
2023-05-14T10:37:56.570Z,71.63
2023-05-14T10:40:27.513Z,71.17
2023-05-14T10:43:03.061Z,71.62
2023-05-14T10:45:34.573Z,69.58
2023-05-14T10:48:05.367Z,68.25
2023-05-14T10:50:35.825Z,70.68
2023-05-14T10:53:06.539Z,69.91
2023-05-14T10:55:37.329Z,68.57
2023-05-14T10:58:10.624Z,71.51
2023-05-14T11:00:42.084Z,73.19
2023-05-14T11:03:14.124Z,72.06
2023-05-14T11:05:44.538Z,71.97
2023-05-14T11:08:15.824Z,71.76
2023-05-14T11:10:47.254Z,69.92
2023-05-14T11:13:22.178Z,66.32
2023-05-14T11:15:53.709Z,66.38
2023-05-14T11:18:31.257Z,67.40
2023-05-14T11:21:02.606Z,66.60
2023-05-14T11:23:33.134Z,68.14
2023-05-14T11:26:03.622Z,64.64
2023-05-14T11:28:37.384Z,65.11
2023-05-14T11:31:07.990Z,66.38
2023-05-14T11:33:39.376Z,65.25
2023-05-14T11:36:10.974Z,64.74
2023-05-14T11:38:51.605Z,65.20
2023-05-14T11:41:23.496Z,65.76
2023-05-14T11:43:56.698Z,64.37
2023-05-14T11:46:28.685Z,63.64
2023-05-14T11:48:59.055Z,63.56
2023-05-14T11:51:29.438Z,65.00
2023-05-14T11:53:59.933Z,63.78
2023-05-14T11:56:30.417Z,63.77
2023-05-14T11:59:03.401Z,65.08
2023-05-14T12:01:40.037Z,65.67
2023-05-14T12:04:10.744Z,66.19
2023-05-14T12:06:42.650Z,65.47
2023-05-14T12:09:16.592Z,65.59
2023-05-14T12:11:47.639Z,65.55
2023-05-14T12:14:23.380Z,63.56
2023-05-14T12:16:54.401Z,60.98
2023-05-14T12:19:26.075Z,62.18
2023-05-14T12:21:56.768Z,62.17
2023-05-14T12:24:29.086Z,61.26
2023-05-14T12:27:00.666Z,59.10
2023-05-14T12:29:33.954Z,57.68
2023-05-14T12:32:06.126Z,56.29
2023-05-14T12:34:37.641Z,55.01
2023-05-14T12:37:09.281Z,55.86
2023-05-14T12:39:40.089Z,54.23
2023-05-14T12:42:10.982Z,52.81
2023-05-14T12:44:43.992Z,54.00
2023-05-14T12:47:14.395Z,57.11
2023-05-14T12:49:44.757Z,53.05
2023-05-14T12:54:48.419Z,50.39
2023-05-14T12:57:18.964Z,50.66
2023-05-14T12:59:52.085Z,49.90
2023-05-14T13:02:22.547Z,50.74
2023-05-14T13:04:53.202Z,51.30
2023-05-14T13:07:23.563Z,50.16
2023-05-14T13:09:53.919Z,50.74
2023-05-14T13:12:24.337Z,49.38
2023-05-14T13:14:57.312Z,48.47
2023-05-14T13:17:27.867Z,49.55
2023-05-14T13:19:58.442Z,51.14
2023-05-14T13:22:28.984Z,51.21
2023-05-14T13:24:59.402Z,51.71
2023-05-14T13:27:30.563Z,51.24
2023-05-14T13:30:04.335Z,52.68
2023-05-14T13:32:34.938Z,53.51
2023-05-14T13:35:05.538Z,53.34
2023-05-14T13:37:35.912Z,53.18
2023-05-14T13:40:07.647Z,53.16
2023-05-14T13:42:39.937Z,53.24
2023-05-14T13:45:14.551Z,52.54
2023-05-14T13:47:45.066Z,52.46
2023-05-14T13:50:15.500Z,52.53
2023-05-14T13:52:45.874Z,51.69
2023-05-14T13:55:17.504Z,52.85
2023-05-14T13:57:55.784Z,52.58
2023-05-14T14:00:30.874Z,52.91
2023-05-14T14:03:01.462Z,54.31
2023-05-14T14:05:33.156Z,53.46
2023-05-14T14:08:17.806Z,54.20
2023-05-14T14:10:54.642Z,53.41
2023-05-14T14:13:25.544Z,52.37
2023-05-14T14:16:03.260Z,51.42
2023-05-14T14:18:33.862Z,48.77
2023-05-14T14:21:04.400Z,49.25
2023-05-14T14:23:34.890Z,44.98
2023-05-14T14:26:05.334Z,45.06
2023-05-14T14:28:36.122Z,43.98
2023-05-14T14:31:09.290Z,42.20
2023-05-14T14:33:39.671Z,43.64
2023-05-14T14:36:11.473Z,42.14
2023-05-14T14:38:41.988Z,40.19
2023-05-14T14:41:12.849Z,40.40
2023-05-14T14:43:44.239Z,41.49
2023-05-14T14:46:17.190Z,41.17
2023-05-14T14:48:47.586Z,40.12
2023-05-14T14:51:18.287Z,39.50
2023-05-14T14:53:48.705Z,38.33
2023-05-14T14:56:19.134Z,38.12
2023-05-14T14:58:49.525Z,37.07
2023-05-14T15:01:23.153Z,37.83
2023-05-14T15:03:53.580Z,37.67
2023-05-14T15:06:24.050Z,36.98
2023-05-14T15:08:54.457Z,38.19
2023-05-14T15:11:24.921Z,40.31
2023-05-14T15:13:55.323Z,41.81
2023-05-14T15:16:28.406Z,43.03
2023-05-14T15:18:59.010Z,42.84
2023-05-14T15:21:29.624Z,43.88
2023-05-14T15:23:59.982Z,44.76
2023-05-14T15:26:30.528Z,44.52
2023-05-14T15:29:01.106Z,45.17
2023-05-14T15:31:34.247Z,45.59
2023-05-14T15:34:04.735Z,45.73
2023-05-14T15:36:35.081Z,46.70
2023-05-14T15:39:05.488Z,46.47
2023-05-14T15:41:36.236Z,46.11
2023-05-14T15:44:07.060Z,46.09
2023-05-14T15:46:40.363Z,46.18
2023-05-14T15:49:11.120Z,45.78
2023-05-14T15:51:41.693Z,45.25
2023-05-14T15:54:12.203Z,45.36
2023-05-14T15:56:42.669Z,45.62
2023-05-14T15:59:14.249Z,45.66
2023-05-14T16:01:47.443Z,45.30
2023-05-14T16:04:17.956Z,45.46
2023-05-14T16:06:48.773Z,44.69
2023-05-14T16:09:19.588Z,43.41
2023-05-14T16:11:50.055Z,42.48
2023-05-14T16:14:20.401Z,40.75
2023-05-14T16:16:53.592Z,40.83
2023-05-14T16:19:24.167Z,40.71
2023-05-14T16:21:54.710Z,41.47
2023-05-14T16:24:25.171Z,40.44
2023-05-14T16:26:56.057Z,39.48
2023-05-14T16:29:26.601Z,39.09
2023-05-14T16:31:59.819Z,38.43
2023-05-14T16:34:30.256Z,39.14
2023-05-14T16:37:02.155Z,39.13
2023-05-14T16:39:32.592Z,38.20
2023-05-14T16:42:02.970Z,39.04
2023-05-14T16:44:33.526Z,37.30
2023-05-14T16:47:06.912Z,37.01
2023-05-14T16:49:37.329Z,37.42
2023-05-14T16:52:09.283Z,36.01
2023-05-14T16:54:40.058Z,36.66
2023-05-14T16:57:10.489Z,37.00
2023-05-14T16:59:41.202Z,37.52
2023-05-14T17:02:14.860Z,38.55
2023-05-14T17:04:45.472Z,38.93
2023-05-14T17:07:16.173Z,39.85
2023-05-14T17:09:46.567Z,39.90
2023-05-14T17:12:17.081Z,40.33
2023-05-14T17:14:47.424Z,39.93
2023-05-14T17:17:20.756Z,40.03
2023-05-14T17:19:54.944Z,40.02
2023-05-14T17:22:25.693Z,40.19
2023-05-14T17:24:56.158Z,40.69
2023-05-14T17:27:26.795Z,40.65
2023-05-14T17:29:57.230Z,39.70
2023-05-14T17:32:30.593Z,39.41
2023-05-14T17:35:01.320Z,39.71
2023-05-14T17:37:32.374Z,39.97
2023-05-14T17:40:02.858Z,38.94
2023-05-14T17:42:33.596Z,39.88
2023-05-14T17:45:04.099Z,38.74
2023-05-14T17:47:37.262Z,39.76
2023-05-14T17:50:09.354Z,39.77
2023-05-14T17:52:42.218Z,39.99
2023-05-14T17:55:12.870Z,40.07
2023-05-14T17:57:44.339Z,39.74
2023-05-14T18:00:16.483Z,39.98
2023-05-14T18:02:49.465Z,40.00
2023-05-14T18:05:20.776Z,40.50
2023-05-14T18:07:53.051Z,40.73
2023-05-14T18:10:23.498Z,41.40
2023-05-14T18:12:53.892Z,41.35
2023-05-14T18:15:25.933Z,41.70
2023-05-14T18:17:59.159Z,41.90
2023-05-14T18:20:29.696Z,41.83
2023-05-14T18:23:00.179Z,42.39
2023-05-14T18:25:30.611Z,43.06
2023-05-14T18:28:01.021Z,43.02
2023-05-14T18:30:31.474Z,43.29
2023-05-14T18:33:04.757Z,43.08
2023-05-14T18:35:35.386Z,43.69
2023-05-14T18:38:08.122Z,43.72
2023-05-14T18:40:38.540Z,44.46
2023-05-14T18:43:09.254Z,44.59
2023-05-14T18:45:39.702Z,45.01
2023-05-14T18:48:12.991Z,45.04
2023-05-14T18:50:43.574Z,45.19
2023-05-14T18:53:14.056Z,45.43
2023-05-14T18:55:44.522Z,45.68
2023-05-14T18:58:15.064Z,46.57
2023-05-14T19:00:45.557Z,46.89
2023-05-14T19:03:20.022Z,47.01
2023-05-14T19:05:50.803Z,47.22
2023-05-14T19:08:21.331Z,47.61
2023-05-14T19:10:51.922Z,47.94
2023-05-14T19:13:22.407Z,48.23
2023-05-14T19:15:53.078Z,48.98
2023-05-14T19:18:26.385Z,49.01
2023-05-14T19:20:57.071Z,49.09
2023-05-14T19:23:27.515Z,50.02
2023-05-14T19:25:57.935Z,50.04
2023-05-14T19:28:28.542Z,50.02
2023-05-14T19:30:59.023Z,49.86
2023-05-14T19:33:32.384Z,50.00
2023-05-14T19:36:02.856Z,49.89
2023-05-14T19:38:33.266Z,50.48
2023-05-14T19:41:03.707Z,51.06
2023-05-14T19:43:34.113Z,51.17
2023-05-14T19:46:06.280Z,51.01
2023-05-14T19:48:39.702Z,51.01
2023-05-14T19:51:11.133Z,51.43
2023-05-14T19:53:41.932Z,51.59
2023-05-14T19:56:12.458Z,51.56
2023-05-14T19:58:42.885Z,51.52
2023-05-14T20:01:13.433Z,52.06
2023-05-14T20:03:47.085Z,52.12
2023-05-14T20:06:18.572Z,52.59
2023-05-14T20:08:49.197Z,52.94
2023-05-14T20:11:19.844Z,52.96
2023-05-14T20:13:50.553Z,53.10
2023-05-14T20:16:21.949Z,52.79
2023-05-14T20:18:56.699Z,52.55
2023-05-14T20:21:27.167Z,52.54
2023-05-14T20:23:57.760Z,53.06
2023-05-14T20:26:28.423Z,52.75
2023-05-14T20:28:58.980Z,53.49
2023-05-14T20:31:29.439Z,53.18
2023-05-14T20:34:02.584Z,53.51
2023-05-14T20:36:33.866Z,53.46
2023-05-14T20:39:06.225Z,54.21
2023-05-14T20:41:36.867Z,54.77
2023-05-14T20:44:07.600Z,54.91
2023-05-14T20:46:37.977Z,55.33
2023-05-14T20:49:11.454Z,56.06
2023-05-14T20:51:41.832Z,56.91
2023-05-14T20:54:12.204Z,57.09
2023-05-14T20:56:42.678Z,57.72
2023-05-14T20:59:13.122Z,58.03
2023-05-14T21:01:43.525Z,58.81
2023-05-14T21:04:16.658Z,59.46
2023-05-14T21:06:47.324Z,59.73
2023-05-14T21:09:17.923Z,59.82
2023-05-14T21:11:48.331Z,60.18
2023-05-14T21:14:18.945Z,60.54
2023-05-14T21:16:49.474Z,60.88
2023-05-14T21:19:22.573Z,61.53
2023-05-14T21:21:52.975Z,61.89
2023-05-14T21:24:23.279Z,62.14
2023-05-14T21:26:53.744Z,62.10
2023-05-14T21:29:24.580Z,62.29
2023-05-14T21:31:55.000Z,62.21
2023-05-14T21:34:29.116Z,62.75
2023-05-14T21:36:59.947Z,62.73
2023-05-14T21:39:30.244Z,62.94
2023-05-14T21:42:01.016Z,63.51
2023-05-14T21:44:31.468Z,63.70
2023-05-14T21:47:02.095Z,63.61
2023-05-14T21:49:35.741Z,63.85
2023-05-14T21:52:06.695Z,64.16
2023-05-14T21:54:37.426Z,64.38
2023-05-14T21:57:08.513Z,65.02
2023-05-14T21:59:39.913Z,64.82
2023-05-14T22:02:10.795Z,65.11
2023-05-14T22:04:44.018Z,65.25
2023-05-14T22:07:14.534Z,65.67
2023-05-14T22:09:45.050Z,65.70
2023-05-14T22:12:15.382Z,66.08
2023-05-14T22:14:45.743Z,66.37
2023-05-14T22:17:16.248Z,66.58
2023-05-14T22:19:49.181Z,66.85
2023-05-14T22:22:19.846Z,67.06
2023-05-14T22:24:50.279Z,67.06
2023-05-14T22:27:21.050Z,67.23
2023-05-14T22:29:51.654Z,67.37
2023-05-14T22:32:22.193Z,67.83
2023-05-14T22:34:55.313Z,67.86
2023-05-14T22:37:25.735Z,68.26
2023-05-14T22:39:56.152Z,68.44
2023-05-14T22:42:27.363Z,68.87
2023-05-14T22:44:58.430Z,69.25
2023-05-14T22:47:29.064Z,69.81
2023-05-14T22:50:02.121Z,69.92
2023-05-14T22:52:32.561Z,69.91
2023-05-14T22:55:03.715Z,70.12
2023-05-14T22:57:34.051Z,70.80
2023-05-14T23:00:04.740Z,70.97
2023-05-14T23:02:35.917Z,71.79
2023-05-14T23:05:10.630Z,71.96
2023-05-14T23:07:41.160Z,72.51
2023-05-14T23:10:13.440Z,73.03
2023-05-14T23:12:43.808Z,72.92
2023-05-14T23:15:14.589Z,73.00
2023-05-14T23:17:45.277Z,73.14
2023-05-14T23:20:18.740Z,73.38
2023-05-14T23:22:49.266Z,73.63
2023-05-14T23:25:19.709Z,73.86
2023-05-14T23:27:50.589Z,73.61
2023-05-14T23:30:21.252Z,73.58
2023-05-14T23:32:51.728Z,73.48
2023-05-14T23:35:25.164Z,73.69
2023-05-14T23:37:55.765Z,74.09
2023-05-14T23:40:26.066Z,74.36
2023-05-14T23:42:57.675Z,74.66
2023-05-14T23:45:28.069Z,75.06
2023-05-14T23:48:00.870Z,75.26
2023-05-14T23:50:34.101Z,75.77
2023-05-14T23:53:04.504Z,76.86
2023-05-14T23:55:34.936Z,77.17
2023-05-14T23:58:06.493Z,78.14
